sensor_id;sensor_type;location;lat;lon;timestamp;temperature;humidity
13336;DHT22;6737;51.480;11.962;2023-10-13T00:00:38;15.00;99.90
13336;DHT22;6737;51.480;11.962;2023-10-13T00:03:08;15.00;99.90
13336;DHT22;6737;51.480;11.962;2023-10-13T00:05:41;14.90;99.90
13336;DHT22;6737;51.480;11.962;2023-10-13T00:08:09;15.00;99.90
13336;DHT22;6737;51.480;11.962;2023-10-13T00:10:35;15.00;99.90
13336;DHT22;6737;51.480;11.962;2023-10-13T00:13:02;15.00;99.90
13336;DHT22;6737;51.480;11.962;2023-10-13T00:15:42;15.00;99.90
13336;DHT22;6737;51.480;11.962;2023-10-13T00:18:28;15.00;99.90
13336;DHT22;6737;51.480;11.962;2023-10-13T00:21:08;15.00;99.90
13336;DHT22;6737;51.480;11.962;2023-10-13T00:23:46;15.00;99.90
13336;DHT22;6737;51.480;11.962;2023-10-13T00:26:19;15.00;99.90
13336;DHT22;6737;51.480;11.962;2023-10-13T00:28:49;15.00;99.90
13336;DHT22;6737;51.480;11.962;2023-10-13T00:31:25;15.00;99.90
13336;DHT22;6737;51.480;11.962;2023-10-13T00:34:02;15.00;99.90
13336;DHT22;6737;51.480;11.962;2023-10-13T00:36:36;15.00;99.90
13336;DHT22;6737;51.480;11.962;2023-10-13T00:39:02;15.00;99.90
13336;DHT22;6737;51.480;11.962;2023-10-13T00:41:32;15.00;99.90
13336;DHT22;6737;51.480;11.962;2023-10-13T00:44:19;15.00;99.90
13336;DHT22;6737;51.480;11.962;2023-10-13T00:46:55;15.00;99.90
13336;DHT22;6737;51.480;11.962;2023-10-13T00:49:23;15.00;99.90
13336;DHT22;6737;51.480;11.962;2023-10-13T00:51:50;15.00;99.90
13336;DHT22;6737;51.480;11.962;2023-10-13T00:54:17;15.00;99.90
13336;DHT22;6737;51.480;11.962;2023-10-13T00:56:46;15.00;99.90
13336;DHT22;6737;51.480;11.962;2023-10-13T00:59:23;15.00;99.90
13336;DHT22;6737;51.480;11.962;2023-10-13T01:01:51;15.00;99.90
13336;DHT22;6737;51.480;11.962;2023-10-13T01:04:22;15.00;99.90
13336;DHT22;6737;51.480;11.962;2023-10-13T01:06:54;15.10;99.90
13336;DHT22;6737;51.480;11.962;2023-10-13T01:09:19;15.10;99.90
13336;DHT22;6737;51.480;11.962;2023-10-13T01:11:47;15.10;99.90
13336;DHT22;6737;51.480;11.962;2023-10-13T01:14:18;15.10;99.90
13336;DHT22;6737;51.480;11.962;2023-10-13T01:16:47;15.10;99.90
13336;DHT22;6737;51.480;11.962;2023-10-13T01:19:17;15.10;99.90
13336;DHT22;6737;51.480;11.962;2023-10-13T01:21:48;15.20;99.90
13336;DHT22;6737;51.480;11.962;2023-10-13T01:24:14;15.20;99.90
13336;DHT22;6737;51.480;11.962;2023-10-13T01:26:43;15.10;99.90
13336;DHT22;6737;51.480;11.962;2023-10-13T01:29:10;15.10;99.90
13336;DHT22;6737;51.480;11.962;2023-10-13T01:31:40;15.10;99.90
13336;DHT22;6737;51.480;11.962;2023-10-13T01:34:12;15.10;99.90
13336;DHT22;6737;51.480;11.962;2023-10-13T01:36:39;15.00;99.90
13336;DHT22;6737;51.480;11.962;2023-10-13T01:39:07;15.00;99.90
13336;DHT22;6737;51.480;11.962;2023-10-13T01:41:37;15.00;99.90
13336;DHT22;6737;51.480;11.962;2023-10-13T01:44:05;15.00;99.90
13336;DHT22;6737;51.480;11.962;2023-10-13T01:46:30;15.00;99.90
13336;DHT22;6737;51.480;11.962;2023-10-13T01:48:56;15.00;99.90
13336;DHT22;6737;51.480;11.962;2023-10-13T01:51:22;14.90;99.90
13336;DHT22;6737;51.480;11.962;2023-10-13T01:53:48;14.90;99.90
13336;DHT22;6737;51.480;11.962;2023-10-13T01:56:22;14.90;99.90
13336;DHT22;6737;51.480;11.962;2023-10-13T01:58:49;14.90;99.90
13336;DHT22;6737;51.480;11.962;2023-10-13T02:01:15;14.90;99.90
13336;DHT22;6737;51.480;11.962;2023-10-13T02:03:56;14.80;99.90
13336;DHT22;6737;51.480;11.962;2023-10-13T02:06:35;14.90;99.90
13336;DHT22;6737;51.480;11.962;2023-10-13T02:09:06;14.80;99.90
13336;DHT22;6737;51.480;11.962;2023-10-13T02:11:39;14.80;99.90
13336;DHT22;6737;51.480;11.962;2023-10-13T02:14:06;14.80;99.90
13336;DHT22;6737;51.480;11.962;2023-10-13T02:16:31;14.80;99.90
13336;DHT22;6737;51.480;11.962;2023-10-13T02:18:58;14.80;99.90
13336;DHT22;6737;51.480;11.962;2023-10-13T02:21:30;14.80;99.90
13336;DHT22;6737;51.480;11.962;2023-10-13T02:23:58;14.80;99.90
13336;DHT22;6737;51.480;11.962;2023-10-13T02:26:31;14.70;99.90
13336;DHT22;6737;51.480;11.962;2023-10-13T02:28:59;14.70;99.90
13336;DHT22;6737;51.480;11.962;2023-10-13T02:31:27;14.70;99.90
13336;DHT22;6737;51.480;11.962;2023-10-13T02:33:53;14.70;99.90
13336;DHT22;6737;51.480;11.962;2023-10-13T02:36:20;14.80;99.90
13336;DHT22;6737;51.480;11.962;2023-10-13T02:39:05;14.70;99.90
13336;DHT22;6737;51.480;11.962;2023-10-13T02:41:36;14.80;99.90
13336;DHT22;6737;51.480;11.962;2023-10-13T02:44:06;14.70;99.90
13336;DHT22;6737;51.480;11.962;2023-10-13T02:46:33;14.70;99.90
13336;DHT22;6737;51.480;11.962;2023-10-13T02:49:02;14.80;99.90
13336;DHT22;6737;51.480;11.962;2023-10-13T02:51:37;14.70;99.90
13336;DHT22;6737;51.480;11.962;2023-10-13T02:54:06;14.70;99.90
13336;DHT22;6737;51.480;11.962;2023-10-13T02:56:44;14.70;99.90
13336;DHT22;6737;51.480;11.962;2023-10-13T02:59:15;14.70;99.90
13336;DHT22;6737;51.480;11.962;2023-10-13T03:01:45;14.70;99.90
13336;DHT22;6737;51.480;11.962;2023-10-13T03:04:10;14.70;99.90
13336;DHT22;6737;51.480;11.962;2023-10-13T03:06:38;14.70;99.90
13336;DHT22;6737;51.480;11.962;2023-10-13T03:09:08;14.70;99.90
13336;DHT22;6737;51.480;11.962;2023-10-13T03:11:44;14.70;99.90
13336;DHT22;6737;51.480;11.962;2023-10-13T03:14:19;14.70;99.90
13336;DHT22;6737;51.480;11.962;2023-10-13T03:17:01;14.70;99.90
13336;DHT22;6737;51.480;11.962;2023-10-13T03:19:34;14.70;99.90
13336;DHT22;6737;51.480;11.962;2023-10-13T03:22:07;14.70;99.90
13336;DHT22;6737;51.480;11.962;2023-10-13T03:24:39;14.80;99.90
13336;DHT22;6737;51.480;11.962;2023-10-13T03:27:18;14.70;99.90
13336;DHT22;6737;51.480;11.962;2023-10-13T03:29:49;14.80;99.90
13336;DHT22;6737;51.480;11.962;2023-10-13T03:32:22;14.80;99.90
13336;DHT22;6737;51.480;11.962;2023-10-13T03:34:51;14.80;99.90
13336;DHT22;6737;51.480;11.962;2023-10-13T03:37:18;14.70;99.90
13336;DHT22;6737;51.480;11.962;2023-10-13T03:39:48;14.70;99.90
13336;DHT22;6737;51.480;11.962;2023-10-13T03:42:14;14.80;99.90
13336;DHT22;6737;51.480;11.962;2023-10-13T03:44:45;14.80;99.90
13336;DHT22;6737;51.480;11.962;2023-10-13T03:47:14;14.80;99.90
13336;DHT22;6737;51.480;11.962;2023-10-13T03:49:55;14.80;99.90
13336;DHT22;6737;51.480;11.962;2023-10-13T03:52:39;14.80;99.90
13336;DHT22;6737;51.480;11.962;2023-10-13T03:55:06;14.80;99.90
13336;DHT22;6737;51.480;11.962;2023-10-13T03:57:33;14.80;99.90
13336;DHT22;6737;51.480;11.962;2023-10-13T03:59:59;14.80;99.90
13336;DHT22;6737;51.480;11.962;2023-10-13T04:02:34;14.80;99.90
13336;DHT22;6737;51.480;11.962;2023-10-13T04:05:00;14.90;99.90
13336;DHT22;6737;51.480;11.962;2023-10-13T04:07:33;14.90;99.90
13336;DHT22;6737;51.480;11.962;2023-10-13T04:10:07;14.90;99.90
13336;DHT22;6737;51.480;11.962;2023-10-13T04:12:56;14.90;99.90
13336;DHT22;6737;51.480;11.962;2023-10-13T04:15:57;15.00;99.90
13336;DHT22;6737;51.480;11.962;2023-10-13T04:18:41;15.00;99.90
13336;DHT22;6737;51.480;11.962;2023-10-13T04:21:20;15.00;99.90
13336;DHT22;6737;51.480;11.962;2023-10-13T04:24:11;15.10;99.90
13336;DHT22;6737;51.480;11.962;2023-10-13T04:26:45;15.10;99.90
13336;DHT22;6737;51.480;11.962;2023-10-13T04:29:29;15.10;99.90
13336;DHT22;6737;51.480;11.962;2023-10-13T04:32:14;15.20;99.90
13336;DHT22;6737;51.480;11.962;2023-10-13T04:34:41;15.20;99.90
13336;DHT22;6737;51.480;11.962;2023-10-13T04:37:17;15.20;99.90
13336;DHT22;6737;51.480;11.962;2023-10-13T04:39:57;15.20;99.90
13336;DHT22;6737;51.480;11.962;2023-10-13T04:42:34;15.20;99.90
13336;DHT22;6737;51.480;11.962;2023-10-13T04:45:18;15.20;99.90
13336;DHT22;6737;51.480;11.962;2023-10-13T04:48:05;15.20;99.90
13336;DHT22;6737;51.480;11.962;2023-10-13T04:50:59;15.20;99.90
13336;DHT22;6737;51.480;11.962;2023-10-13T04:53:46;15.20;99.90
13336;DHT22;6737;51.480;11.962;2023-10-13T04:56:35;15.20;99.90
13336;DHT22;6737;51.480;11.962;2023-10-13T04:59:07;15.20;99.90
13336;DHT22;6737;51.480;11.962;2023-10-13T05:01:52;15.20;99.90
13336;DHT22;6737;51.480;11.962;2023-10-13T05:04:36;15.30;99.90
13336;DHT22;6737;51.480;11.962;2023-10-13T05:07:25;15.30;99.90
13336;DHT22;6737;51.480;11.962;2023-10-13T05:10:09;15.30;99.90
13336;DHT22;6737;51.480;11.962;2023-10-13T05:12:53;15.30;99.90
13336;DHT22;6737;51.480;11.962;2023-10-13T05:15:48;15.30;99.90
13336;DHT22;6737;51.480;11.962;2023-10-13T05:18:32;15.40;99.90
13336;DHT22;6737;51.480;11.962;2023-10-13T05:21:17;15.30;99.90
13336;DHT22;6737;51.480;11.962;2023-10-13T05:24:02;15.40;99.90
13336;DHT22;6737;51.480;11.962;2023-10-13T05:26:46;15.40;99.90
13336;DHT22;6737;51.480;11.962;2023-10-13T05:29:31;15.40;99.90
13336;DHT22;6737;51.480;11.962;2023-10-13T05:32:15;15.40;99.90
13336;DHT22;6737;51.480;11.962;2023-10-13T05:34:59;15.40;99.90
13336;DHT22;6737;51.480;11.962;2023-10-13T05:37:43;15.40;99.90
13336;DHT22;6737;51.480;11.962;2023-10-13T05:40:34;15.40;99.90
13336;DHT22;6737;51.480;11.962;2023-10-13T05:43:19;15.40;99.90
13336;DHT22;6737;51.480;11.962;2023-10-13T05:46:04;15.50;99.90
13336;DHT22;6737;51.480;11.962;2023-10-13T05:48:48;15.40;99.90
13336;DHT22;6737;51.480;11.962;2023-10-13T05:51:26;15.50;99.90
13336;DHT22;6737;51.480;11.962;2023-10-13T05:53:59;15.50;99.90
13336;DHT22;6737;51.480;11.962;2023-10-13T05:56:54;15.50;99.90
13336;DHT22;6737;51.480;11.962;2023-10-13T05:59:39;15.50;99.90
13336;DHT22;6737;51.480;11.962;2023-10-13T06:02:24;15.50;99.90
13336;DHT22;6737;51.480;11.962;2023-10-13T06:05:10;15.50;99.90
13336;DHT22;6737;51.480;11.962;2023-10-13T06:07:55;15.50;99.90
13336;DHT22;6737;51.480;11.962;2023-10-13T06:10:40;15.60;99.90
13336;DHT22;6737;51.480;11.962;2023-10-13T06:13:25;15.60;99.90
13336;DHT22;6737;51.480;11.962;2023-10-13T06:18:54;15.60;99.90
13336;DHT22;6737;51.480;11.962;2023-10-13T06:21:39;15.60;99.90
13336;DHT22;6737;51.480;11.962;2023-10-13T06:24:23;15.60;99.90
13336;DHT22;6737;51.480;11.962;2023-10-13T06:27:08;15.70;99.90
13336;DHT22;6737;51.480;11.962;2023-10-13T06:29:52;15.70;99.90
13336;DHT22;6737;51.480;11.962;2023-10-13T06:32:20;15.70;99.90
13336;DHT22;6737;51.480;11.962;2023-10-13T06:34:46;15.70;99.90
13336;DHT22;6737;51.480;11.962;2023-10-13T06:37:16;15.70;99.90
13336;DHT22;6737;51.480;11.962;2023-10-13T06:39:53;15.70;99.90
13336;DHT22;6737;51.480;11.962;2023-10-13T06:42:25;15.70;99.90
13336;DHT22;6737;51.480;11.962;2023-10-13T06:44:57;15.70;99.90
13336;DHT22;6737;51.480;11.962;2023-10-13T06:47:25;15.80;99.90
13336;DHT22;6737;51.480;11.962;2023-10-13T06:49:53;15.80;99.90
13336;DHT22;6737;51.480;11.962;2023-10-13T06:52:21;15.80;99.90
13336;DHT22;6737;51.480;11.962;2023-10-13T06:54:55;15.90;99.90
13336;DHT22;6737;51.480;11.962;2023-10-13T06:57:21;16.00;99.90
13336;DHT22;6737;51.480;11.962;2023-10-13T06:59:48;16.00;99.90
13336;DHT22;6737;51.480;11.962;2023-10-13T07:02:13;16.00;99.90
13336;DHT22;6737;51.480;11.962;2023-10-13T07:04:49;16.00;99.90
13336;DHT22;6737;51.480;11.962;2023-10-13T07:07:23;16.00;99.90
13336;DHT22;6737;51.480;11.962;2023-10-13T07:09:49;16.10;99.90
13336;DHT22;6737;51.480;11.962;2023-10-13T07:12:21;16.10;99.90
13336;DHT22;6737;51.480;11.962;2023-10-13T07:14:58;16.10;99.90
13336;DHT22;6737;51.480;11.962;2023-10-13T07:17:46;16.10;99.90
13336;DHT22;6737;51.480;11.962;2023-10-13T07:20:13;16.20;99.90
13336;DHT22;6737;51.480;11.962;2023-10-13T07:22:54;16.20;99.90
13336;DHT22;6737;51.480;11.962;2023-10-13T07:25:30;16.20;99.90
13336;DHT22;6737;51.480;11.962;2023-10-13T07:28:03;16.30;99.90
13336;DHT22;6737;51.480;11.962;2023-10-13T07:30:35;16.30;99.90
13336;DHT22;6737;51.480;11.962;2023-10-13T07:33:24;16.30;99.90
13336;DHT22;6737;51.480;11.962;2023-10-13T07:36:04;16.30;99.90
13336;DHT22;6737;51.480;11.962;2023-10-13T07:38:49;16.40;99.90
13336;DHT22;6737;51.480;11.962;2023-10-13T07:41:25;16.30;99.90
13336;DHT22;6737;51.480;11.962;2023-10-13T07:43:56;16.40;99.90
13336;DHT22;6737;51.480;11.962;2023-10-13T07:46:23;16.40;99.90
13336;DHT22;6737;51.480;11.962;2023-10-13T07:48:57;16.40;99.90
13336;DHT22;6737;51.480;11.962;2023-10-13T07:51:35;16.40;99.90
13336;DHT22;6737;51.480;11.962;2023-10-13T07:54:15;16.50;99.90
13336;DHT22;6737;51.480;11.962;2023-10-13T07:56:48;16.50;99.90
13336;DHT22;6737;51.480;11.962;2023-10-13T07:59:14;16.50;99.90
13336;DHT22;6737;51.480;11.962;2023-10-13T08:01:48;16.50;99.90
13336;DHT22;6737;51.480;11.962;2023-10-13T08:04:34;16.60;99.90
13336;DHT22;6737;51.480;11.962;2023-10-13T08:07:01;16.60;99.90
13336;DHT22;6737;51.480;11.962;2023-10-13T08:09:40;16.70;99.90
13336;DHT22;6737;51.480;11.962;2023-10-13T08:12:07;16.70;99.90
13336;DHT22;6737;51.480;11.962;2023-10-13T08:14:38;16.80;99.90
13336;DHT22;6737;51.480;11.962;2023-10-13T08:17:09;16.80;99.90
13336;DHT22;6737;51.480;11.962;2023-10-13T08:19:36;16.80;99.90
13336;DHT22;6737;51.480;11.962;2023-10-13T08:22:08;16.80;99.90
13336;DHT22;6737;51.480;11.962;2023-10-13T08:24:43;16.90;99.90
13336;DHT22;6737;51.480;11.962;2023-10-13T08:27:10;16.90;99.90
13336;DHT22;6737;51.480;11.962;2023-10-13T08:29:43;16.90;99.90
13336;DHT22;6737;51.480;11.962;2023-10-13T08:32:26;17.00;99.90
13336;DHT22;6737;51.480;11.962;2023-10-13T08:34:55;17.10;99.90
13336;DHT22;6737;51.480;11.962;2023-10-13T08:37:22;17.10;99.90
13336;DHT22;6737;51.480;11.962;2023-10-13T08:39:55;17.10;99.90
13336;DHT22;6737;51.480;11.962;2023-10-13T08:42:44;17.20;99.90
13336;DHT22;6737;51.480;11.962;2023-10-13T08:45:19;17.30;99.90
13336;DHT22;6737;51.480;11.962;2023-10-13T08:50:37;17.30;99.90
13336;DHT22;6737;51.480;11.962;2023-10-13T08:53:24;17.40;99.90
13336;DHT22;6737;51.480;11.962;2023-10-13T08:58:29;17.50;99.90
13336;DHT22;6737;51.480;11.962;2023-10-13T09:01:15;17.50;99.90
13336;DHT22;6737;51.480;11.962;2023-10-13T09:04:03;17.60;99.90
13336;DHT22;6737;51.480;11.962;2023-10-13T09:06:44;17.60;99.90
13336;DHT22;6737;51.480;11.962;2023-10-13T09:09:27;17.70;99.90
13336;DHT22;6737;51.480;11.962;2023-10-13T09:12:11;17.80;99.90
13336;DHT22;6737;51.480;11.962;2023-10-13T09:14:38;17.80;99.90
13336;DHT22;6737;51.480;11.962;2023-10-13T09:17:09;17.90;99.90
13336;DHT22;6737;51.480;11.962;2023-10-13T09:19:46;17.90;99.90
13336;DHT22;6737;51.480;11.962;2023-10-13T09:22:27;17.90;99.90
13336;DHT22;6737;51.480;11.962;2023-10-13T09:25:04;17.90;99.90
13336;DHT22;6737;51.480;11.962;2023-10-13T09:27:32;18.00;99.90
13336;DHT22;6737;51.480;11.962;2023-10-13T09:30:00;18.00;99.90
13336;DHT22;6737;51.480;11.962;2023-10-13T09:33:03;18.00;99.90
13336;DHT22;6737;51.480;11.962;2023-10-13T09:35:34;18.00;99.90
13336;DHT22;6737;51.480;11.962;2023-10-13T09:38:03;18.00;99.90
13336;DHT22;6737;51.480;11.962;2023-10-13T09:40:30;18.00;99.90
13336;DHT22;6737;51.480;11.962;2023-10-13T09:43:00;18.00;99.90
13336;DHT22;6737;51.480;11.962;2023-10-13T09:45:32;18.00;99.90
13336;DHT22;6737;51.480;11.962;2023-10-13T09:48:03;18.00;99.90
13336;DHT22;6737;51.480;11.962;2023-10-13T09:50:44;18.00;99.90
13336;DHT22;6737;51.480;11.962;2023-10-13T09:53:12;18.00;99.90
13336;DHT22;6737;51.480;11.962;2023-10-13T09:55:46;18.00;99.90
13336;DHT22;6737;51.480;11.962;2023-10-13T09:58:14;18.10;99.90
13336;DHT22;6737;51.480;11.962;2023-10-13T10:00:57;18.10;99.90
13336;DHT22;6737;51.480;11.962;2023-10-13T10:03:43;18.10;99.90
13336;DHT22;6737;51.480;11.962;2023-10-13T10:06:24;18.10;99.90
13336;DHT22;6737;51.480;11.962;2023-10-13T10:09:08;18.10;99.90
13336;DHT22;6737;51.480;11.962;2023-10-13T10:15:26;18.20;99.90
13336;DHT22;6737;51.480;11.962;2023-10-13T10:17:56;18.30;99.90
13336;DHT22;6737;51.480;11.962;2023-10-13T10:20:36;18.40;99.90
13336;DHT22;6737;51.480;11.962;2023-10-13T10:23:09;18.50;99.90
13336;DHT22;6737;51.480;11.962;2023-10-13T10:25:48;18.60;99.90
13336;DHT22;6737;51.480;11.962;2023-10-13T10:28:17;18.70;99.90
13336;DHT22;6737;51.480;11.962;2023-10-13T10:30:46;18.70;99.90
13336;DHT22;6737;51.480;11.962;2023-10-13T10:33:12;18.70;99.90
13336;DHT22;6737;51.480;11.962;2023-10-13T10:35:43;18.70;99.90
13336;DHT22;6737;51.480;11.962;2023-10-13T10:38:19;18.70;99.90
13336;DHT22;6737;51.480;11.962;2023-10-13T10:40:53;18.80;99.90
13336;DHT22;6737;51.480;11.962;2023-10-13T10:46:09;18.90;99.90
13336;DHT22;6737;51.480;11.962;2023-10-13T10:48:37;18.90;99.90
13336;DHT22;6737;51.480;11.962;2023-10-13T10:51:12;18.90;99.90
13336;DHT22;6737;51.480;11.962;2023-10-13T10:53:51;19.00;99.90
13336;DHT22;6737;51.480;11.962;2023-10-13T10:56:22;19.00;99.90
13336;DHT22;6737;51.480;11.962;2023-10-13T10:58:56;19.10;99.90
13336;DHT22;6737;51.480;11.962;2023-10-13T11:01:23;19.10;99.90
13336;DHT22;6737;51.480;11.962;2023-10-13T11:04:08;19.10;99.90
13336;DHT22;6737;51.480;11.962;2023-10-13T11:06:35;19.10;99.90
13336;DHT22;6737;51.480;11.962;2023-10-13T11:09:08;19.10;99.90
13336;DHT22;6737;51.480;11.962;2023-10-13T11:11:53;19.10;99.90
13336;DHT22;6737;51.480;11.962;2023-10-13T11:14:24;19.10;99.90
13336;DHT22;6737;51.480;11.962;2023-10-13T11:16:51;19.10;99.90
13336;DHT22;6737;51.480;11.962;2023-10-13T11:19:21;19.00;99.90
13336;DHT22;6737;51.480;11.962;2023-10-13T11:22:13;19.10;99.90
13336;DHT22;6737;51.480;11.962;2023-10-13T11:25:05;19.10;99.90
13336;DHT22;6737;51.480;11.962;2023-10-13T11:27:41;19.10;99.90
13336;DHT22;6737;51.480;11.962;2023-10-13T11:30:19;19.10;99.90
13336;DHT22;6737;51.480;11.962;2023-10-13T11:32:57;19.10;99.90
13336;DHT22;6737;51.480;11.962;2023-10-13T11:35:24;19.10;99.90
13336;DHT22;6737;51.480;11.962;2023-10-13T11:37:50;19.10;99.90
13336;DHT22;6737;51.480;11.962;2023-10-13T11:40:34;19.00;99.90
13336;DHT22;6737;51.480;11.962;2023-10-13T11:43:12;19.10;99.90
13336;DHT22;6737;51.480;11.962;2023-10-13T11:45:41;19.00;99.90
13336;DHT22;6737;51.480;11.962;2023-10-13T11:48:26;19.10;99.90
13336;DHT22;6737;51.480;11.962;2023-10-13T11:51:11;19.10;99.90
13336;DHT22;6737;51.480;11.962;2023-10-13T11:53:44;19.10;99.90
13336;DHT22;6737;51.480;11.962;2023-10-13T11:56:19;19.10;99.90
13336;DHT22;6737;51.480;11.962;2023-10-13T11:58:48;19.10;99.90
13336;DHT22;6737;51.480;11.962;2023-10-13T12:01:15;19.20;99.90
13336;DHT22;6737;51.480;11.962;2023-10-13T12:03:48;19.20;99.90
13336;DHT22;6737;51.480;11.962;2023-10-13T12:06:35;19.20;99.90
13336;DHT22;6737;51.480;11.962;2023-10-13T12:11:43;19.20;99.90
13336;DHT22;6737;51.480;11.962;2023-10-13T12:14:16;19.30;99.90
13336;DHT22;6737;51.480;11.962;2023-10-13T12:16:51;19.20;99.90
13336;DHT22;6737;51.480;11.962;2023-10-13T12:19:22;19.30;99.90
13336;DHT22;6737;51.480;11.962;2023-10-13T12:21:50;19.30;99.90
13336;DHT22;6737;51.480;11.962;2023-10-13T12:24:21;19.40;99.90
13336;DHT22;6737;51.480;11.962;2023-10-13T12:27:05;19.40;99.90
13336;DHT22;6737;51.480;11.962;2023-10-13T12:29:53;19.50;99.90
13336;DHT22;6737;51.480;11.962;2023-10-13T12:32:22;19.50;99.90
13336;DHT22;6737;51.480;11.962;2023-10-13T12:34:51;19.50;99.90
13336;DHT22;6737;51.480;11.962;2023-10-13T12:37:42;19.50;99.90
13336;DHT22;6737;51.480;11.962;2023-10-13T12:40:12;19.60;99.90
13336;DHT22;6737;51.480;11.962;2023-10-13T12:42:57;19.60;99.90
13336;DHT22;6737;51.480;11.962;2023-10-13T12:45:43;19.70;99.90
13336;DHT22;6737;51.480;11.962;2023-10-13T12:48:28;19.70;99.90
13336;DHT22;6737;51.480;11.962;2023-10-13T12:51:14;19.80;99.90
13336;DHT22;6737;51.480;11.962;2023-10-13T12:53:48;19.80;99.90
13336;DHT22;6737;51.480;11.962;2023-10-13T12:56:14;19.90;99.90
13336;DHT22;6737;51.480;11.962;2023-10-13T12:58:42;20.00;99.90
13336;DHT22;6737;51.480;11.962;2023-10-13T13:01:18;20.00;99.90
13336;DHT22;6737;51.480;11.962;2023-10-13T13:03:49;20.10;99.90
13336;DHT22;6737;51.480;11.962;2023-10-13T13:06:19;20.20;99.90
13336;DHT22;6737;51.480;11.962;2023-10-13T13:08:58;20.30;99.90
13336;DHT22;6737;51.480;11.962;2023-10-13T13:11:25;20.60;99.90
13336;DHT22;6737;51.480;11.962;2023-10-13T13:13:51;20.60;99.90
13336;DHT22;6737;51.480;11.962;2023-10-13T13:16:18;20.70;99.90
13336;DHT22;6737;51.480;11.962;2023-10-13T13:18:45;20.80;99.90
13336;DHT22;6737;51.480;11.962;2023-10-13T13:21:11;20.80;99.90
13336;DHT22;6737;51.480;11.962;2023-10-13T13:23:38;20.80;99.90
13336;DHT22;6737;51.480;11.962;2023-10-13T13:26:06;20.90;99.90
13336;DHT22;6737;51.480;11.962;2023-10-13T13:28:45;20.80;99.90
13336;DHT22;6737;51.480;11.962;2023-10-13T13:31:11;20.80;99.90
13336;DHT22;6737;51.480;11.962;2023-10-13T13:33:40;20.80;99.90
13336;DHT22;6737;51.480;11.962;2023-10-13T13:36:09;20.80;99.90
13336;DHT22;6737;51.480;11.962;2023-10-13T13:38:40;20.90;99.90
13336;DHT22;6737;51.480;11.962;2023-10-13T13:41:11;20.90;99.90
13336;DHT22;6737;51.480;11.962;2023-10-13T13:43:40;20.80;99.90
13336;DHT22;6737;51.480;11.962;2023-10-13T13:46:23;20.60;99.90
13336;DHT22;6737;51.480;11.962;2023-10-13T13:49:15;20.60;99.90
13336;DHT22;6737;51.480;11.962;2023-10-13T13:51:45;20.50;99.90
13336;DHT22;6737;51.480;11.962;2023-10-13T13:54:20;20.40;99.90
13336;DHT22;6737;51.480;11.962;2023-10-13T13:56:47;20.40;99.90
13336;DHT22;6737;51.480;11.962;2023-10-13T13:59:13;20.30;99.90
13336;DHT22;6737;51.480;11.962;2023-10-13T14:01:46;20.30;99.90
13336;DHT22;6737;51.480;11.962;2023-10-13T14:04:11;20.30;99.90
13336;DHT22;6737;51.480;11.962;2023-10-13T14:06:39;20.20;99.90
13336;DHT22;6737;51.480;11.962;2023-10-13T14:09:05;20.10;99.90
13336;DHT22;6737;51.480;11.962;2023-10-13T14:11:41;20.20;99.90
13336;DHT22;6737;51.480;11.962;2023-10-13T14:14:26;20.10;99.90
13336;DHT22;6737;51.480;11.962;2023-10-13T14:16:52;20.00;99.90
13336;DHT22;6737;51.480;11.962;2023-10-13T14:19:20;20.00;99.90
13336;DHT22;6737;51.480;11.962;2023-10-13T14:21:59;20.10;99.90
13336;DHT22;6737;51.480;11.962;2023-10-13T14:24:26;20.00;99.90
13336;DHT22;6737;51.480;11.962;2023-10-13T14:27:00;20.00;99.90
13336;DHT22;6737;51.480;11.962;2023-10-13T14:29:35;20.00;99.90
13336;DHT22;6737;51.480;11.962;2023-10-13T14:32:09;20.00;99.90
13336;DHT22;6737;51.480;11.962;2023-10-13T14:34:40;20.00;99.90
13336;DHT22;6737;51.480;11.962;2023-10-13T14:37:06;20.00;99.90
13336;DHT22;6737;51.480;11.962;2023-10-13T14:39:33;20.10;99.90
13336;DHT22;6737;51.480;11.962;2023-10-13T14:42:02;20.10;99.90
13336;DHT22;6737;51.480;11.962;2023-10-13T14:44:28;20.10;99.90
13336;DHT22;6737;51.480;11.962;2023-10-13T14:46:54;20.20;99.90
13336;DHT22;6737;51.480;11.962;2023-10-13T14:49:21;20.20;99.90
13336;DHT22;6737;51.480;11.962;2023-10-13T14:51:47;20.30;99.90
13336;DHT22;6737;51.480;11.962;2023-10-13T14:54:15;20.30;99.90
13336;DHT22;6737;51.480;11.962;2023-10-13T14:56:42;20.40;99.90
13336;DHT22;6737;51.480;11.962;2023-10-13T14:59:09;20.30;99.90
13336;DHT22;6737;51.480;11.962;2023-10-13T15:01:42;20.40;99.90
13336;DHT22;6737;51.480;11.962;2023-10-13T15:04:09;20.50;99.90
13336;DHT22;6737;51.480;11.962;2023-10-13T15:06:34;20.50;99.90
13336;DHT22;6737;51.480;11.962;2023-10-13T15:09:01;20.50;99.90
13336;DHT22;6737;51.480;11.962;2023-10-13T15:11:28;20.50;99.90
13336;DHT22;6737;51.480;11.962;2023-10-13T15:14:04;20.60;99.90
13336;DHT22;6737;51.480;11.962;2023-10-13T15:16:32;20.60;99.90
13336;DHT22;6737;51.480;11.962;2023-10-13T15:19:00;20.50;99.90
13336;DHT22;6737;51.480;11.962;2023-10-13T15:21:27;20.50;99.90
13336;DHT22;6737;51.480;11.962;2023-10-13T15:24:04;20.50;99.90
13336;DHT22;6737;51.480;11.962;2023-10-13T15:26:44;20.40;99.90
13336;DHT22;6737;51.480;11.962;2023-10-13T15:29:15;20.30;99.90
13336;DHT22;6737;51.480;11.962;2023-10-13T15:31:45;20.20;99.90
13336;DHT22;6737;51.480;11.962;2023-10-13T15:34:27;20.10;99.90
13336;DHT22;6737;51.480;11.962;2023-10-13T15:36:54;20.10;99.90
13336;DHT22;6737;51.480;11.962;2023-10-13T15:39:25;20.00;99.90
13336;DHT22;6737;51.480;11.962;2023-10-13T15:41:57;20.00;99.90
13336;DHT22;6737;51.480;11.962;2023-10-13T15:44:28;20.00;99.90
13336;DHT22;6737;51.480;11.962;2023-10-13T15:46:56;20.00;99.90
13336;DHT22;6737;51.480;11.962;2023-10-13T15:49:23;20.00;99.90
13336;DHT22;6737;51.480;11.962;2023-10-13T15:51:49;20.00;99.90
13336;DHT22;6737;51.480;11.962;2023-10-13T15:54:18;20.00;99.90
13336;DHT22;6737;51.480;11.962;2023-10-13T15:56:48;19.90;99.90
13336;DHT22;6737;51.480;11.962;2023-10-13T15:59:14;19.90;99.90
13336;DHT22;6737;51.480;11.962;2023-10-13T16:01:40;19.90;99.90
13336;DHT22;6737;51.480;11.962;2023-10-13T16:04:07;19.90;99.90
13336;DHT22;6737;51.480;11.962;2023-10-13T16:06:38;20.00;99.90
13336;DHT22;6737;51.480;11.962;2023-10-13T16:09:04;20.00;99.90
13336;DHT22;6737;51.480;11.962;2023-10-13T16:11:43;20.10;99.90
13336;DHT22;6737;51.480;11.962;2023-10-13T16:14:09;20.00;99.90
13336;DHT22;6737;51.480;11.962;2023-10-13T16:16:36;20.00;99.90
13336;DHT22;6737;51.480;11.962;2023-10-13T16:19:02;20.00;99.90
13336;DHT22;6737;51.480;11.962;2023-10-13T16:21:32;20.00;99.90
13336;DHT22;6737;51.480;11.962;2023-10-13T16:24:05;20.00;99.90
13336;DHT22;6737;51.480;11.962;2023-10-13T16:26:37;20.00;99.90
13336;DHT22;6737;51.480;11.962;2023-10-13T16:29:06;20.00;99.90